createdAt,value
2022-11-18T00:01:22.826Z,0.25
2022-11-18T00:03:52.025Z,0.26
2022-11-18T00:06:23.163Z,0.27
2022-11-18T00:08:51.576Z,0.20
2022-11-18T00:11:35.736Z,0.16
2022-11-18T00:14:23.081Z,0.12
2022-11-18T00:16:53.966Z,0.15
2022-11-18T00:19:23.862Z,0.13
2022-11-18T00:21:53.191Z,0.20
2022-11-18T00:24:22.213Z,0.14
2022-11-18T00:26:50.470Z,0.12
2022-11-18T00:29:19.008Z,0.19
2022-11-18T00:31:47.043Z,0.26
2022-11-18T00:34:18.588Z,0.29
2022-11-18T00:36:47.434Z,0.42
2022-11-18T00:39:21.417Z,0.45
2022-11-18T00:42:08.122Z,0.45
2022-11-18T00:44:35.971Z,0.46
2022-11-18T00:47:04.121Z,0.46
2022-11-18T00:49:34.053Z,0.50
2022-11-18T00:52:02.328Z,0.52
2022-11-18T00:54:31.523Z,0.56
2022-11-18T00:56:59.475Z,0.53
2022-11-18T00:59:27.375Z,0.57
2022-11-18T01:01:55.308Z,0.60
2022-11-18T01:04:23.604Z,0.64
2022-11-18T01:06:51.575Z,0.68
2022-11-18T01:09:19.673Z,0.66
2022-11-18T01:12:09.404Z,0.74
2022-11-18T01:14:38.876Z,0.73
2022-11-18T01:17:06.762Z,0.75
2022-11-18T01:19:34.663Z,0.74
2022-11-18T01:22:03.366Z,0.75
2022-11-18T01:24:31.878Z,0.74
2022-11-18T01:27:01.778Z,0.75
2022-11-18T01:29:29.747Z,0.72
2022-11-18T01:34:46.618Z,0.60
2022-11-18T01:37:14.542Z,0.69
2022-11-18T01:39:42.546Z,0.70
2022-11-18T01:42:16.015Z,0.80
2022-11-18T01:45:16.747Z,0.82
2022-11-18T01:47:50.679Z,0.90
2022-11-18T01:50:21.826Z,0.88
2022-11-18T01:52:52.029Z,0.93
2022-11-18T01:55:25.464Z,0.98
2022-11-18T01:58:02.967Z,0.99
2022-11-18T02:00:31.055Z,0.96
2022-11-18T02:03:00.783Z,0.87
2022-11-18T02:05:30.042Z,0.99
2022-11-18T02:07:59.517Z,1.03
2022-11-18T02:10:27.598Z,1.01
2022-11-18T02:12:59.075Z,0.96
2022-11-18T02:15:38.021Z,0.92
2022-11-18T02:18:14.040Z,0.91
2022-11-18T02:20:43.943Z,0.92
2022-11-18T02:23:43.351Z,0.88
2022-11-18T02:26:47.177Z,0.91
2022-11-18T02:29:19.414Z,0.90
2022-11-18T02:31:53.417Z,0.91
2022-11-18T02:34:33.450Z,0.96
2022-11-18T02:37:07.040Z,0.87
2022-11-18T02:39:39.252Z,0.95
2022-11-18T02:42:11.631Z,0.90
2022-11-18T02:44:44.547Z,0.81
2022-11-18T02:47:16.836Z,0.93
2022-11-18T02:49:49.110Z,0.89
2022-11-18T02:52:20.414Z,0.95
2022-11-18T02:54:51.070Z,0.92
2022-11-18T02:57:21.814Z,0.92
2022-11-18T02:59:51.117Z,1.00
2022-11-18T03:02:20.772Z,1.06
2022-11-18T03:04:50.898Z,1.05
2022-11-18T03:07:23.785Z,1.02
2022-11-18T03:09:53.900Z,0.93
2022-11-18T03:12:32.532Z,1.04
2022-11-18T03:15:12.703Z,0.96
2022-11-18T03:17:50.256Z,1.02
2022-11-18T03:20:26.976Z,0.97
2022-11-18T03:22:59.169Z,0.96
2022-11-18T03:25:36.936Z,0.84
2022-11-18T03:28:11.727Z,0.76
2022-11-18T03:30:47.853Z,0.68
2022-11-18T03:33:23.612Z,0.70
2022-11-18T03:35:56.880Z,0.69
2022-11-18T03:38:31.175Z,0.70
2022-11-18T03:41:05.152Z,0.73
2022-11-18T03:43:38.087Z,0.85
2022-11-18T03:46:13.946Z,0.76
2022-11-18T03:48:46.805Z,0.92
2022-11-18T03:51:19.815Z,0.93
2022-11-18T03:53:55.247Z,0.92
2022-11-18T03:56:30.441Z,0.92
2022-11-18T03:59:05.635Z,0.99
2022-11-18T04:01:41.106Z,1.03
2022-11-18T04:04:10.272Z,0.94
2022-11-18T04:06:43.609Z,0.92
2022-11-18T04:09:16.797Z,0.86
2022-11-18T04:12:04.969Z,0.84
2022-11-18T04:14:35.613Z,0.79
2022-11-18T04:17:10.687Z,0.75
2022-11-18T04:19:38.643Z,0.70
2022-11-18T04:22:07.012Z,0.58
2022-11-18T04:24:35.152Z,0.46
2022-11-18T04:27:04.466Z,0.35
2022-11-18T04:29:32.883Z,0.22
2022-11-18T04:32:01.372Z,0.25
2022-11-18T04:34:31.005Z,0.13
2022-11-18T04:36:59.228Z,0.00
2022-11-18T04:39:27.125Z,-0.03
2022-11-18T04:41:57.584Z,-0.10
2022-11-18T04:44:27.353Z,-0.20
2022-11-18T04:46:56.365Z,-0.09
2022-11-18T04:49:25.224Z,-0.17
2022-11-18T04:51:54.871Z,-0.22
2022-11-18T04:54:23.413Z,-0.31
2022-11-18T04:56:51.498Z,-0.45
2022-11-18T04:59:21.763Z,-0.43
2022-11-18T05:01:50.543Z,-0.50
2022-11-18T05:04:20.033Z,-0.47
2022-11-18T05:06:48.323Z,-0.49
2022-11-18T05:09:18.062Z,-0.45
2022-11-18T05:12:03.939Z,-0.49
2022-11-18T05:14:32.404Z,-0.61
2022-11-18T05:17:04.309Z,-0.67
2022-11-18T05:19:32.094Z,-0.71
2022-11-18T05:22:00.032Z,-0.75
2022-11-18T05:24:29.537Z,-0.82
2022-11-18T05:26:57.489Z,-0.86
2022-11-18T05:29:25.284Z,-0.89
2022-11-18T05:31:53.057Z,-0.90
2022-11-18T05:34:21.285Z,-0.87
2022-11-18T05:36:49.286Z,-0.80
2022-11-18T05:39:17.453Z,-0.92
2022-11-18T05:42:04.506Z,-0.97
2022-11-18T05:44:32.444Z,-0.95
2022-11-18T05:47:00.294Z,-0.95
2022-11-18T05:49:28.333Z,-0.88
2022-11-18T05:51:56.212Z,-1.03
2022-11-18T05:54:24.531Z,-0.99
2022-11-18T05:56:53.933Z,-1.21
2022-11-18T05:59:22.424Z,-1.00
2022-11-18T06:01:52.844Z,-1.14
2022-11-18T06:04:27.342Z,-1.08
2022-11-18T06:07:01.049Z,-1.09
2022-11-18T06:09:33.709Z,-1.14
2022-11-18T06:12:06.322Z,-1.73
2022-11-18T06:14:41.042Z,-1.43
2022-11-18T06:17:13.649Z,-1.21
2022-11-18T06:19:41.642Z,-1.19
2022-11-18T06:22:10.208Z,-1.29
2022-11-18T06:24:39.043Z,-1.34
2022-11-18T06:27:09.671Z,-1.32
2022-11-18T06:29:37.744Z,-1.32
2022-11-18T06:32:05.714Z,-1.17
2022-11-18T06:34:39.809Z,-0.97
2022-11-18T06:37:15.756Z,-0.70
2022-11-18T06:39:44.409Z,-0.72
2022-11-18T06:42:34.896Z,-0.70
2022-11-18T06:45:02.292Z,-0.78
2022-11-18T06:47:30.274Z,-0.96
2022-11-18T06:49:58.178Z,-0.93
2022-11-18T06:52:27.529Z,-0.95
2022-11-18T06:54:55.400Z,-0.85
2022-11-18T06:57:25.012Z,-0.82
2022-11-18T06:59:55.489Z,-0.74
2022-11-18T07:02:27.008Z,-0.67
2022-11-18T07:04:54.867Z,-0.73
2022-11-18T07:07:22.822Z,-0.76
2022-11-18T07:09:51.362Z,-0.96
2022-11-18T07:12:19.393Z,-0.78
2022-11-18T07:14:59.620Z,-0.88
2022-11-18T07:17:28.340Z,-1.22
2022-11-18T07:19:56.233Z,-1.01
2022-11-18T07:22:24.110Z,-1.00
2022-11-18T07:24:53.276Z,-1.03
2022-11-18T07:27:21.252Z,-1.01
2022-11-18T07:29:49.104Z,-1.10
2022-11-18T07:32:18.674Z,-1.04
2022-11-18T07:34:46.496Z,-0.97
2022-11-18T07:37:14.348Z,-0.89
2022-11-18T07:39:42.258Z,-0.76
2022-11-18T07:42:11.451Z,-0.56
2022-11-18T07:44:39.529Z,-0.52
2022-11-18T07:47:07.437Z,-0.46
2022-11-18T07:49:37.968Z,-0.49
2022-11-18T07:52:05.958Z,-0.54
2022-11-18T07:54:33.782Z,-0.76
2022-11-18T07:57:01.627Z,-0.68
2022-11-18T07:59:30.816Z,-0.67
2022-11-18T08:02:00.410Z,-0.72
2022-11-18T08:04:28.353Z,-0.80
2022-11-18T08:06:57.798Z,-0.53
2022-11-18T08:09:25.834Z,-0.36
2022-11-18T08:11:53.730Z,-0.21
2022-11-18T08:14:24.061Z,-0.11
2022-11-18T08:16:52.087Z,-0.06
2022-11-18T08:19:20.192Z,0.15
2022-11-18T08:21:48.229Z,0.18
2022-11-18T08:24:17.742Z,0.20
2022-11-18T08:26:45.602Z,0.27
2022-11-18T08:29:13.601Z,0.41
2022-11-18T08:31:41.761Z,0.55
2022-11-18T08:34:09.912Z,0.71
2022-11-18T08:36:39.781Z,0.85
2022-11-18T08:39:09.733Z,0.96
2022-11-18T08:41:40.476Z,0.92
2022-11-18T08:44:09.689Z,0.34
2022-11-18T08:46:37.530Z,1.02
2022-11-18T08:49:05.325Z,1.17
2022-11-18T08:51:33.785Z,1.30
2022-11-18T08:54:01.680Z,1.37
2022-11-18T08:56:29.574Z,1.51
2022-11-18T08:58:58.807Z,1.67
2022-11-18T09:01:27.479Z,1.70
2022-11-18T09:03:55.925Z,1.75
2022-11-18T09:06:25.278Z,1.73
2022-11-18T09:08:53.653Z,1.75
2022-11-18T09:11:25.155Z,1.84
2022-11-18T09:16:43.775Z,1.83
2022-11-18T09:21:59.888Z,1.52
2022-11-18T09:24:27.816Z,1.62
2022-11-18T09:26:55.677Z,1.59
2022-11-18T09:29:26.166Z,1.46
2022-11-18T09:31:56.278Z,1.59
2022-11-18T09:34:26.457Z,1.69
2022-11-18T09:36:56.022Z,1.84
2022-11-18T09:39:24.969Z,1.95
2022-11-18T09:42:01.947Z,2.03
2022-11-18T09:44:52.342Z,2.03
2022-11-18T09:47:29.038Z,2.00
2022-11-18T09:49:59.573Z,2.05
2022-11-18T09:52:35.689Z,2.08
2022-11-18T09:55:13.535Z,2.08
2022-11-18T09:57:46.396Z,2.22
2022-11-18T10:00:17.204Z,2.37
2022-11-18T10:02:59.155Z,2.89
2022-11-18T10:05:29.476Z,3.50
2022-11-18T10:08:19.797Z,5.25
2022-11-18T10:10:56.504Z,6.84
2022-11-18T10:13:38.558Z,7.83
2022-11-18T10:16:24.186Z,8.84
2022-11-18T10:19:03.890Z,10.12
2022-11-18T10:21:43.832Z,10.24
2022-11-18T10:24:18.140Z,10.18
2022-11-18T10:26:48.493Z,9.87
2022-11-18T10:29:16.460Z,9.74
2022-11-18T10:31:59.754Z,8.75
2022-11-18T10:34:33.762Z,7.34
2022-11-18T10:37:04.624Z,6.54
2022-11-18T10:39:32.903Z,5.95
2022-11-18T10:42:03.403Z,5.33
2022-11-18T10:44:37.826Z,4.85
2022-11-18T10:47:33.789Z,4.38
2022-11-18T10:50:24.223Z,4.13
2022-11-18T10:52:54.158Z,4.02
2022-11-18T10:55:24.301Z,3.79
2022-11-18T10:58:02.826Z,3.41
2022-11-18T11:00:36.472Z,3.68
2022-11-18T11:03:27.637Z,3.72
2022-11-18T11:06:34.078Z,3.61
2022-11-18T11:09:05.849Z,3.96
2022-11-18T11:11:36.019Z,4.96
2022-11-18T11:14:15.657Z,5.12
2022-11-18T11:16:49.911Z,5.28
2022-11-18T11:19:23.237Z,5.63
2022-11-18T11:21:53.127Z,5.52
2022-11-18T11:24:23.899Z,5.33
2022-11-18T11:30:07.111Z,4.91
2022-11-18T11:32:58.896Z,5.06
2022-11-18T11:35:31.550Z,4.95
2022-11-18T11:38:04.219Z,4.89
2022-11-18T11:40:38.204Z,4.83
2022-11-18T11:43:23.250Z,5.03
2022-11-18T11:46:07.728Z,4.93
2022-11-18T11:48:49.932Z,4.70
2022-11-18T11:51:26.961Z,4.38
2022-11-18T11:54:16.862Z,4.12
2022-11-18T11:56:50.187Z,3.64
2022-11-18T11:59:29.505Z,3.35
2022-11-18T12:02:08.472Z,3.09
2022-11-18T12:04:44.011Z,2.88
2022-11-18T12:07:18.876Z,2.75
2022-11-18T12:10:21.897Z,2.54
2022-11-18T12:12:57.585Z,2.47
2022-11-18T12:15:41.676Z,2.35
2022-11-18T12:18:18.445Z,2.24
2022-11-18T12:20:48.237Z,2.13
2022-11-18T12:23:19.650Z,2.09
2022-11-18T12:25:58.203Z,2.02
2022-11-18T12:28:29.356Z,1.99
2022-11-18T12:31:36.528Z,2.00
2022-11-18T12:34:20.513Z,1.91
2022-11-18T12:36:48.915Z,1.77
2022-11-18T12:39:58.635Z,1.77
2022-11-18T12:43:02.756Z,1.64
2022-11-18T12:45:59.212Z,1.57
2022-11-18T12:48:39.084Z,1.41
2022-11-18T12:51:40.867Z,1.25
2022-11-18T12:54:28.204Z,1.16
2022-11-18T12:56:59.279Z,1.16
2022-11-18T12:59:34.933Z,1.15
2022-11-18T13:02:04.812Z,1.00
2022-11-18T13:04:34.134Z,1.05
2022-11-18T13:07:03.561Z,0.99
2022-11-18T13:09:34.479Z,0.87
2022-11-18T13:12:05.322Z,0.64
2022-11-18T13:14:54.299Z,0.72
2022-11-18T13:17:45.293Z,0.66
2022-11-18T13:20:27.297Z,0.55
2022-11-18T13:23:15.033Z,0.56
2022-11-18T13:25:45.682Z,0.55
2022-11-18T13:28:25.687Z,0.54
2022-11-18T13:31:02.771Z,0.47
2022-11-18T13:33:34.064Z,0.48
2022-11-18T13:36:02.414Z,0.58
2022-11-18T13:38:30.305Z,0.65
2022-11-18T13:41:08.350Z,0.75
2022-11-18T13:43:36.945Z,0.69
2022-11-18T13:46:16.434Z,0.71
2022-11-18T13:48:50.124Z,0.62
2022-11-18T13:51:19.346Z,0.57
2022-11-18T13:53:48.340Z,0.53
2022-11-18T13:56:20.890Z,0.46
2022-11-18T13:59:16.225Z,0.59
2022-11-18T14:01:46.193Z,0.68
2022-11-18T14:04:20.408Z,0.64
2022-11-18T14:06:48.579Z,0.63
2022-11-18T14:09:26.004Z,0.73
2022-11-18T14:12:03.499Z,0.82
2022-11-18T14:14:33.703Z,0.78
2022-11-18T14:17:16.068Z,0.83
2022-11-18T14:19:45.794Z,0.84
2022-11-18T14:22:18.637Z,0.88
2022-11-18T14:24:55.992Z,0.82
2022-11-18T14:27:38.195Z,0.77
2022-11-18T14:30:36.062Z,0.79
2022-11-18T14:33:11.327Z,0.78
2022-11-18T14:35:39.668Z,0.80
2022-11-18T14:38:36.515Z,0.78
2022-11-18T14:41:04.705Z,0.76
2022-11-18T14:43:32.889Z,0.73
2022-11-18T14:46:04.524Z,0.72
2022-11-18T14:48:33.994Z,0.75
2022-11-18T14:51:02.245Z,0.78
2022-11-18T14:53:30.321Z,0.74
2022-11-18T14:56:00.535Z,0.76
2022-11-18T14:58:28.401Z,0.76
2022-11-18T15:00:56.625Z,0.82
2022-11-18T15:03:24.657Z,0.79
2022-11-18T15:05:54.000Z,0.82
2022-11-18T15:08:21.824Z,0.85
2022-11-18T15:10:49.689Z,0.81
2022-11-18T15:13:17.756Z,0.77
2022-11-18T15:15:45.589Z,0.80
2022-11-18T15:18:13.655Z,0.79
2022-11-18T15:20:41.459Z,0.69
2022-11-18T15:23:13.373Z,0.87
2022-11-18T15:25:41.432Z,0.83
2022-11-18T15:28:11.265Z,0.77
2022-11-18T15:30:39.376Z,0.82
2022-11-18T15:33:07.502Z,0.81
2022-11-18T15:35:35.630Z,0.73
2022-11-18T15:38:03.479Z,0.77
2022-11-18T15:40:32.841Z,0.75
2022-11-18T15:43:00.694Z,0.76
2022-11-18T15:45:30.251Z,0.76
2022-11-18T15:47:59.640Z,0.77
2022-11-18T15:50:27.727Z,0.81
2022-11-18T15:52:56.222Z,0.75
2022-11-18T15:55:24.724Z,0.79
2022-11-18T15:57:54.209Z,0.78
2022-11-18T16:00:22.187Z,0.82
2022-11-18T16:02:50.310Z,0.80
2022-11-18T16:05:18.127Z,0.77
2022-11-18T16:07:48.269Z,0.75
2022-11-18T16:10:48.586Z,0.79
2022-11-18T16:13:22.170Z,0.77
2022-11-18T16:15:49.985Z,0.78
2022-11-18T16:18:20.147Z,0.78
2022-11-18T16:20:48.000Z,0.77
2022-11-18T16:23:16.206Z,0.76
2022-11-18T16:25:46.219Z,0.77
2022-11-18T16:28:14.233Z,0.75
2022-11-18T16:31:06.677Z,0.69
2022-11-18T16:33:34.689Z,0.74
2022-11-18T16:36:03.082Z,0.73
2022-11-18T16:38:31.234Z,0.72
2022-11-18T16:41:00.156Z,0.71
2022-11-18T16:43:28.008Z,0.69
2022-11-18T16:45:57.419Z,0.68
2022-11-18T16:48:25.467Z,0.70
2022-11-18T16:51:18.695Z,0.71
2022-11-18T16:53:51.365Z,0.68
2022-11-18T16:56:19.379Z,0.69
2022-11-18T16:58:47.286Z,0.68
2022-11-18T17:01:22.111Z,0.52
2022-11-18T17:03:53.190Z,0.68
2022-11-18T17:06:21.802Z,0.73
2022-11-18T17:08:50.370Z,0.75
2022-11-18T17:11:18.483Z,0.74
2022-11-18T17:13:47.024Z,0.76
2022-11-18T17:16:19.323Z,0.71
2022-11-18T17:18:47.886Z,0.75
2022-11-18T17:21:18.509Z,0.69
2022-11-18T17:23:47.100Z,0.72
2022-11-18T17:26:17.445Z,0.69
2022-11-18T17:28:45.385Z,0.77
2022-11-18T17:31:15.444Z,0.70
2022-11-18T17:33:47.222Z,0.74
2022-11-18T17:36:17.135Z,0.74
2022-11-18T17:38:46.776Z,0.73
2022-11-18T17:41:30.870Z,0.75
2022-11-18T17:43:58.749Z,0.70
2022-11-18T17:46:26.677Z,0.73
2022-11-18T17:48:57.419Z,0.79
2022-11-18T17:51:27.673Z,0.78
2022-11-18T17:53:56.305Z,0.82
2022-11-18T17:56:25.631Z,0.77
2022-11-18T17:58:53.958Z,0.73
2022-11-18T18:01:23.128Z,0.78
2022-11-18T18:03:51.195Z,0.77
2022-11-18T18:06:21.026Z,0.80
2022-11-18T18:08:48.953Z,0.79
2022-11-18T18:11:19.280Z,0.76
2022-11-18T18:14:04.747Z,0.74
2022-11-18T18:16:34.545Z,0.75
2022-11-18T18:19:04.874Z,0.79
2022-11-18T18:21:35.799Z,0.78
2022-11-18T18:24:04.710Z,0.82
2022-11-18T18:26:33.109Z,0.75
2022-11-18T18:29:01.985Z,0.79
2022-11-18T18:31:30.643Z,0.82
2022-11-18T18:33:59.089Z,0.88
2022-11-18T18:36:27.514Z,0.90
2022-11-18T18:38:59.229Z,0.89
2022-11-18T18:41:29.142Z,0.91
2022-11-18T18:43:58.412Z,0.84
2022-11-18T18:46:30.738Z,0.89
2022-11-18T18:49:01.478Z,0.88
2022-11-18T18:51:31.241Z,0.76
2022-11-18T18:54:01.120Z,0.87
2022-11-18T18:56:29.458Z,0.83
2022-11-18T18:58:59.203Z,0.85
2022-11-18T19:01:28.352Z,0.82
2022-11-18T19:03:58.507Z,0.80
2022-11-18T19:09:18.362Z,0.84
2022-11-18T19:12:04.564Z,0.77
2022-11-18T19:14:34.044Z,0.79
2022-11-18T19:17:09.474Z,0.80
2022-11-18T19:19:56.828Z,0.79
2022-11-18T19:22:27.992Z,0.72
2022-11-18T19:24:57.876Z,0.02
2022-11-18T19:27:27.265Z,0.80
2022-11-18T19:29:56.127Z,0.86
2022-11-18T19:32:25.275Z,0.91
2022-11-18T19:34:53.257Z,0.84
2022-11-18T19:37:21.496Z,0.85
2022-11-18T19:39:49.563Z,0.84
2022-11-18T19:42:19.377Z,0.81
2022-11-18T19:44:48.244Z,0.83
2022-11-18T19:47:16.682Z,0.82
2022-11-18T19:49:45.094Z,0.37
2022-11-18T19:52:13.420Z,0.80
2022-11-18T19:54:42.372Z,0.78
2022-11-18T19:57:10.642Z,0.80
2022-11-18T19:59:40.851Z,0.85
2022-11-18T20:02:11.476Z,0.78
2022-11-18T20:04:41.128Z,0.80
2022-11-18T20:07:09.645Z,0.77
2022-11-18T20:09:37.784Z,0.71
2022-11-18T20:12:06.978Z,0.76
2022-11-18T20:14:36.337Z,0.77
2022-11-18T20:17:06.078Z,0.68
2022-11-18T20:19:34.388Z,0.72
2022-11-18T20:22:02.591Z,0.71
2022-11-18T20:24:31.010Z,0.58
2022-11-18T20:26:59.422Z,0.59
2022-11-18T20:29:28.577Z,0.66
2022-11-18T20:31:58.133Z,0.65
2022-11-18T20:34:28.023Z,0.64
2022-11-18T20:36:57.414Z,0.50
2022-11-18T20:39:25.791Z,0.60
2022-11-18T20:42:08.880Z,0.67
2022-11-18T20:44:36.976Z,0.67
2022-11-18T20:47:07.540Z,0.62
2022-11-18T20:49:37.121Z,0.48
2022-11-18T20:52:05.871Z,0.68
2022-11-18T20:54:34.359Z,0.66
2022-11-18T20:57:02.819Z,0.59
2022-11-18T20:59:31.839Z,0.64
2022-11-18T21:02:00.301Z,0.59
2022-11-18T21:04:28.968Z,0.47
2022-11-18T21:07:01.837Z,0.60
2022-11-18T21:09:31.995Z,0.63
2022-11-18T21:12:00.511Z,0.64
2022-11-18T21:14:27.617Z,0.56
2022-11-18T21:16:58.030Z,0.58
2022-11-18T21:19:26.596Z,0.64
2022-11-18T21:21:55.485Z,0.65
2022-11-18T21:24:28.767Z,0.66
2022-11-18T21:26:58.129Z,0.63
2022-11-18T21:29:28.398Z,0.53
2022-11-18T21:31:57.912Z,0.55
2022-11-18T21:34:26.287Z,0.58
2022-11-18T21:36:55.423Z,0.51
2022-11-18T21:39:27.228Z,0.54
2022-11-18T21:41:57.229Z,0.57
2022-11-18T21:44:29.314Z,0.45
2022-11-18T21:46:59.430Z,0.44
2022-11-18T21:49:27.349Z,0.49
2022-11-18T21:51:55.333Z,0.49
2022-11-18T21:54:23.191Z,0.48
2022-11-18T21:56:53.680Z,0.49
2022-11-18T21:59:23.829Z,0.49
2022-11-18T22:01:51.679Z,0.52
2022-11-18T22:04:33.740Z,0.54
2022-11-18T22:07:01.995Z,0.53
2022-11-18T22:09:35.785Z,0.45
2022-11-18T22:12:06.718Z,0.55
2022-11-18T22:14:34.655Z,0.48
2022-11-18T22:17:02.722Z,0.49
2022-11-18T22:19:32.491Z,0.53
2022-11-18T22:22:00.521Z,0.39
2022-11-18T22:24:28.688Z,0.56
2022-11-18T22:26:56.603Z,0.57
2022-11-18T22:29:26.194Z,0.52
2022-11-18T22:31:54.481Z,0.51
2022-11-18T22:34:22.438Z,0.50
2022-11-18T22:36:50.353Z,0.54
2022-11-18T22:39:18.513Z,0.56
2022-11-18T22:42:04.174Z,0.56
2022-11-18T22:44:33.446Z,0.52
2022-11-18T22:47:01.524Z,0.49
2022-11-18T22:49:29.744Z,0.49
2022-11-18T22:51:57.808Z,0.47
2022-11-18T22:54:41.181Z,0.39
2022-11-18T22:57:09.627Z,0.40
2022-11-18T22:59:38.888Z,0.48
2022-11-18T23:02:06.985Z,0.48
2022-11-18T23:04:34.992Z,0.53
2022-11-18T23:07:03.313Z,0.36
2022-11-18T23:09:31.292Z,0.47
2022-11-18T23:12:16.524Z,0.47
2022-11-18T23:14:45.852Z,0.51
2022-11-18T23:17:14.073Z,0.53
2022-11-18T23:19:43.764Z,0.47
2022-11-18T23:22:12.096Z,0.49
2022-11-18T23:24:40.523Z,0.39
2022-11-18T23:27:08.682Z,0.47
2022-11-18T23:29:36.630Z,0.46
2022-11-18T23:32:06.696Z,0.47
2022-11-18T23:34:34.495Z,0.46
2022-11-18T23:37:02.401Z,0.44
2022-11-18T23:39:30.536Z,0.48
2022-11-18T23:41:58.396Z,0.45
2022-11-18T23:44:40.197Z,0.47
2022-11-18T23:47:09.429Z,0.43
2022-11-18T23:49:37.630Z,0.43
2022-11-18T23:52:06.133Z,0.46
2022-11-18T23:54:33.921Z,0.48
2022-11-18T23:57:04.433Z,0.48
2022-11-18T23:59:33.077Z,0.46
